Time;durP1;ratioP1;P1;durP2;ratioP2;P2;SDS_P1;SDS_P2;PMS_P1;PMS_P2;Temp;Humidity;BMP_temperature;BMP_pressure;BME280_temperature;BME280_humidity;BME280_pressure;Samples;Min_cycle;Max_cycle;Signal;HPM_P1;HPM_P2
2024/02/24 00:02:07;;;;;;;0.30;0.10;;;10.10;96.70;;;;;;5074602;28;20229;-73
2024/02/24 00:04:33;;;;;;;0.10;0.10;;;10.10;96.70;;;;;;5056571;28;20536;-73
2024/02/24 00:06:59;;;;;;;0.10;0.10;;;10.10;96.80;;;;;;5073298;28;20439;-72
2024/02/24 00:09:25;;;;;;;1.17;0.95;;;10.10;95.70;;;;;;5074601;28;20045;-72
2024/02/24 00:11:51;;;;;;;0.52;0.20;;;10.10;95.00;;;;;;5074186;28;20453;-72
2024/02/24 00:14:17;;;;;;;0.32;0.22;;;10.10;94.90;;;;;;5073194;28;20039;-72
2024/02/24 00:16:43;;;;;;;0.43;0.28;;;10.10;94.30;;;;;;5073190;28;20547;-72
2024/02/24 00:19:09;;;;;;;0.20;0.20;;;10.10;93.20;;;;;;5073071;28;20561;-72
2024/02/24 00:21:35;;;;;;;0.40;0.15;;;10.10;93.50;;;;;;5072694;28;20028;-71
2024/02/24 00:24:01;;;;;;;0.10;0.10;;;10.10;93.30;;;;;;5056420;28;20036;-72
2024/02/24 00:26:27;;;;;;;0.10;0.10;;;10.10;92.60;;;;;;5090237;28;20499;-72
2024/02/24 00:28:53;;;;;;;0.10;0.10;;;10.10;92.90;;;;;;5074097;28;20532;-71
2024/02/24 00:31:19;;;;;;;0.00;0.00;;;10.10;92.20;;;;;;5089539;28;20037;-71
2024/02/24 00:33:45;;;;;;;0.10;0.10;;;10.10;90.90;;;;;;5089922;28;20040;-71
2024/02/24 00:36:11;;;;;;;0.10;0.10;;;10.00;90.30;;;;;;5074097;28;20053;-71
2024/02/24 00:38:37;;;;;;;0.43;0.20;;;10.00;89.20;;;;;;5072965;28;20029;-70
2024/02/24 00:41:03;;;;;;;0.43;0.22;;;10.00;88.80;;;;;;5089034;28;20132;-71
2024/02/24 00:43:29;;;;;;;0.77;0.17;;;10.10;88.50;;;;;;5073107;28;20082;-71
2024/02/24 00:45:55;;;;;;;0.10;0.10;;;10.00;87.50;;;;;;5072774;28;20028;-71
2024/02/24 00:48:21;;;;;;;0.20;0.20;;;10.00;87.60;;;;;;5056112;28;20063;-71
2024/02/24 00:50:47;;;;;;;0.30;0.20;;;10.00;87.50;;;;;;5089252;28;20075;-71
2024/02/24 00:53:13;;;;;;;0.10;0.10;;;10.00;87.40;;;;;;5073727;28;20036;-71
2024/02/24 00:55:39;;;;;;;0.10;0.10;;;10.00;87.30;;;;;;5072634;28;20497;-71
2024/02/24 00:58:05;;;;;;;0.00;0.00;;;10.00;86.70;;;;;;5089529;28;20047;-71
2024/02/24 01:00:32;;;;;;;0.10;0.10;;;10.00;86.50;;;;;;5088899;28;20090;-71
2024/02/24 01:02:58;;;;;;;0.22;0.20;;;10.00;87.10;;;;;;5089325;28;20047;-71
2024/02/24 01:05:24;;;;;;;0.05;0.05;;;10.00;87.50;;;;;;5072361;28;20024;-71
2024/02/24 01:07:50;;;;;;;0.00;0.00;;;10.00;87.90;;;;;;5073764;28;20040;-71
2024/02/24 01:10:16;;;;;;;;;;;10.00;87.50;;;;;;5073703;28;20396;-71
2024/02/24 01:12:42;;;;;;;0.38;0.08;;;9.90;87.30;;;;;;5073945;28;19917;-70
2024/02/24 01:15:08;;;;;;;0.20;0.20;;;9.90;87.30;;;;;;5072246;28;20366;-71
2024/02/24 01:17:34;;;;;;;0.10;0.10;;;9.80;86.70;;;;;;5073737;28;20501;-71
2024/02/24 01:20:00;;;;;;;0.10;0.10;;;9.80;87.60;;;;;;5073339;28;20047;-71
2024/02/24 01:22:26;;;;;;;0.40;0.35;;;9.90;88.30;;;;;;5073292;28;20497;-71
2024/02/24 01:24:55;;;;;;;0.52;0.35;;;9.80;88.10;;;;;;5072079;28;20025;-70
2024/02/24 01:27:21;;;;;;;0.10;0.10;;;9.80;88.10;;;;;;5055415;28;20068;-71
2024/02/24 01:29:47;;;;;;;0.10;0.10;;;9.80;88.10;;;;;;5073064;28;20029;-71
2024/02/24 01:32:13;;;;;;;0.10;0.10;;;9.80;88.10;;;;;;5072684;28;20036;-71
2024/02/24 01:34:39;;;;;;;0.10;0.10;;;9.80;87.80;;;;;;5073288;28;20036;-71
2024/02/24 01:37:05;;;;;;;0.55;0.55;;;9.70;86.40;;;;;;5088556;28;20040;-71
2024/02/24 01:39:32;;;;;;;0.40;0.40;;;9.70;85.10;;;;;;5071682;28;20040;-71
2024/02/24 01:41:58;;;;;;;0.20;0.20;;;9.60;84.50;;;;;;5072813;28;20060;-71
2024/02/24 01:44:24;;;;;;;0.10;0.10;;;9.60;83.90;;;;;;5071925;28;20489;-71
2024/02/24 01:46:50;;;;;;;0.85;0.35;;;9.50;83.30;;;;;;5072964;28;20303;-71
2024/02/24 01:49:16;;;;;;;0.08;0.08;;;9.50;83.50;;;;;;5071395;28;20184;-71
2024/02/24 01:51:44;;;;;;;0.00;0.00;;;9.40;83.40;;;;;;5070878;28;20474;-70
2024/02/24 01:54:10;;;;;;;0.10;0.10;;;9.40;83.60;;;;;;5072742;28;20070;-71
2024/02/24 01:56:39;;;;;;;0.10;0.10;;;9.30;83.80;;;;;;5088286;28;20036;-71
2024/02/24 01:59:06;;;;;;;0.25;0.15;;;9.30;83.90;;;;;;5071085;28;20040;-71
2024/02/24 02:01:32;;;;;;;0.20;0.20;;;9.30;83.80;;;;;;5070209;28;20028;-71
2024/02/24 02:03:58;;;;;;;0.10;0.10;;;9.20;83.60;;;;;;5054497;28;20397;-70
2024/02/24 02:06:28;;;;;;;3.20;0.45;;;9.20;83.50;;;;;;5071085;28;20512;-71
2024/02/24 02:08:55;;;;;;;0.10;0.10;;;9.20;83.90;;;;;;5072176;28;20040;-71
2024/02/24 02:11:21;;;;;;;0.00;0.00;;;9.10;84.00;;;;;;5053914;28;20457;-71
2024/02/24 02:13:47;;;;;;;0.10;0.10;;;9.10;84.40;;;;;;5070991;28;20395;-71
2024/02/24 02:16:14;;;;;;;0.10;0.10;;;9.00;84.80;;;;;;5071009;28;20078;-71
2024/02/24 02:18:39;;;;;;;;;;;9.00;85.20;;;;;;5071576;28;20040;-71
2024/02/24 02:21:07;;;;;;;0.10;0.10;;;9.00;85.20;;;;;;5071551;28;19970;-71
2024/02/24 02:23:33;;;;;;;0.00;0.00;;;8.90;85.10;;;;;;5071018;28;20033;-71
2024/02/24 02:25:59;;;;;;;0.10;0.10;;;9.00;84.80;;;;;;5071954;28;20056;-71
2024/02/24 02:28:25;;;;;;;;;;;9.00;84.70;;;;;;5071255;28;20405;-70
2024/02/24 02:30:52;;;;;;;0.28;0.22;;;8.90;83.90;;;;;;5070292;28;19927;-71
2024/02/24 02:33:18;;;;;;;;;;;8.90;84.60;;;;;;5071454;28;20094;-70
2024/02/24 02:35:44;;;;;;;0.10;0.10;;;8.90;84.30;;;;;;5053977;28;19916;-71
2024/02/24 02:38:10;;;;;;;0.10;0.10;;;8.90;84.40;;;;;;5071958;28;20052;-71
2024/02/24 02:40:36;;;;;;;;;;;8.90;84.60;;;;;;5070633;28;20115;-71
2024/02/24 02:43:02;;;;;;;0.10;0.10;;;8.80;83.60;;;;;;5070361;28;20309;-71
2024/02/24 02:45:28;;;;;;;;;;;8.80;84.20;;;;;;5088093;28;20033;-71
2024/02/24 02:47:54;;;;;;;0.00;0.00;;;8.70;82.70;;;;;;5070045;28;20316;-71
2024/02/24 02:50:21;;;;;;;0.10;0.10;;;8.70;84.10;;;;;;5070008;28;20355;-71
2024/02/24 02:52:47;;;;;;;0.10;0.10;;;8.70;84.40;;;;;;5070538;28;20039;-71
2024/02/24 02:55:13;;;;;;;0.10;0.10;;;8.70;84.70;;;;;;5070266;28;20032;-71
2024/02/24 02:57:39;;;;;;;0.10;0.10;;;8.70;84.90;;;;;;5071900;28;20119;-71
2024/02/24 03:00:07;;;;;;;0.15;0.15;;;8.70;85.30;;;;;;5070732;28;20032;-71
2024/02/24 03:02:33;;;;;;;0.10;0.10;;;8.70;85.40;;;;;;5070215;28;20033;-71
2024/02/24 03:04:59;;;;;;;;;;;8.70;86.10;;;;;;5072132;28;20055;-71
2024/02/24 03:07:25;;;;;;;0.10;0.10;;;8.60;85.60;;;;;;5071414;28;19920;-71
2024/02/24 03:09:51;;;;;;;0.10;0.10;;;8.60;86.20;;;;;;5071291;28;20059;-71
2024/02/24 03:12:17;;;;;;;0.17;0.17;;;8.60;86.50;;;;;;5068570;28;20048;-71
2024/02/24 03:14:44;;;;;;;3.20;1.20;;;8.60;87.00;;;;;;5071560;28;20032;-71
2024/02/24 03:17:10;;;;;;;0.65;0.32;;;8.50;86.90;;;;;;5070132;28;20481;-71
2024/02/24 03:19:39;;;;;;;1.73;0.28;;;8.50;87.60;;;;;;5071198;28;20396;-71
2024/02/24 03:22:05;;;;;;;0.82;0.60;;;8.40;88.10;;;;;;5069347;28;20052;-71
2024/02/24 03:24:32;;;;;;;1.92;0.95;;;8.40;88.40;;;;;;5070007;28;20486;-70
2024/02/24 03:26:58;;;;;;;3.15;2.47;;;8.40;88.40;;;;;;5069996;28;20082;-71
2024/02/24 03:29:24;;;;;;;1.17;0.30;;;8.30;88.80;;;;;;5069426;28;20078;-71
2024/02/24 03:31:50;;;;;;;0.43;0.32;;;8.30;88.00;;;;;;5070731;28;20042;-71
2024/02/24 03:34:16;;;;;;;0.32;0.30;;;8.10;87.50;;;;;;5086873;28;20236;-71
2024/02/24 03:36:43;;;;;;;0.10;0.10;;;8.10;88.20;;;;;;5069862;28;20082;-71
2024/02/24 03:39:09;;;;;;;1.17;0.70;;;8.10;88.70;;;;;;5069820;28;20119;-71
2024/02/24 03:41:35;;;;;;;0.95;0.43;;;8.10;88.80;;;;;;5085895;28;20366;-70
2024/02/24 03:44:01;;;;;;;0.77;0.75;;;8.10;88.90;;;;;;5069718;28;20547;-70
2024/02/24 03:46:27;;;;;;;0.10;0.10;;;8.00;88.80;;;;;;5069773;28;20082;-71
2024/02/24 03:48:54;;;;;;;1.13;0.52;;;8.00;88.50;;;;;;5070798;28;20036;-70
2024/02/24 03:51:20;;;;;;;0.40;0.13;;;8.00;88.50;;;;;;5068889;28;20040;-71
2024/02/24 03:53:46;;;;;;;0.00;0.00;;;8.00;88.50;;;;;;5070786;28;20041;-71
2024/02/24 03:56:12;;;;;;;0.28;0.28;;;8.00;88.40;;;;;;5069553;28;20037;-71
2024/02/24 03:58:42;;;;;;;0.10;0.10;;;8.10;88.20;;;;;;5069514;28;20048;-70
2024/02/24 04:01:08;;;;;;;0.17;0.17;;;8.00;88.40;;;;;;5069200;28;20033;-71
2024/02/24 04:03:34;;;;;;;0.10;0.10;;;8.10;88.50;;;;;;5071159;28;20048;-71
2024/02/24 04:06:00;;;;;;;0.22;0.10;;;8.10;88.70;;;;;;5069590;28;20043;-70
2024/02/24 04:08:26;;;;;;;0.10;0.10;;;8.00;88.60;;;;;;5070899;28;20048;-71
2024/02/24 04:10:52;;;;;;;0.40;0.32;;;8.00;88.70;;;;;;5070339;28;20044;-71
2024/02/24 04:13:20;;;;;;;0.10;0.10;;;8.00;88.90;;;;;;5071240;28;20064;-71
2024/02/24 04:15:47;;;;;;;0.52;0.47;;;8.00;89.30;;;;;;5070715;28;20067;-71
2024/02/24 04:18:14;;;;;;;0.47;0.20;;;8.00;89.40;;;;;;5069521;28;20036;-72
2024/02/24 04:20:40;;;;;;;2.17;0.25;;;7.90;89.30;;;;;;5069015;28;20553;-71
2024/02/24 04:23:07;;;;;;;0.13;0.13;;;7.90;89.30;;;;;;5070971;28;20033;-71
2024/02/24 04:25:33;;;;;;;0.80;0.30;;;7.80;88.70;;;;;;5073080;28;20517;-71
2024/02/24 04:27:59;;;;;;;0.75;0.20;;;7.70;88.80;;;;;;5074573;28;20040;-71
2024/02/24 04:30:25;;;;;;;0.40;0.17;;;7.70;88.80;;;;;;5073463;28;20102;-70
2024/02/24 04:32:51;;;;;;;0.10;0.10;;;7.60;88.80;;;;;;5074463;28;20052;-71
2024/02/24 04:35:17;;;;;;;0.75;0.50;;;7.50;88.80;;;;;;5072962;28;20044;-70
2024/02/24 04:37:43;;;;;;;0.20;0.20;;;7.50;89.20;;;;;;5056214;28;20043;-71
2024/02/24 04:40:10;;;;;;;0.10;0.10;;;7.50;89.50;;;;;;5073332;28;20033;-70
2024/02/24 04:42:36;;;;;;;0.10;0.10;;;7.40;89.30;;;;;;5074317;28;20534;-70
2024/02/24 04:45:03;;;;;;;0.63;0.30;;;7.40;89.80;;;;;;5074140;28;20086;-70
2024/02/24 04:47:29;;;;;;;0.10;0.10;;;7.40;88.90;;;;;;5074095;28;20474;-71
2024/02/24 04:49:55;;;;;;;1.30;0.98;;;7.40;89.40;;;;;;5073895;28;20078;-71
2024/02/24 04:52:21;;;;;;;0.43;0.30;;;7.30;88.70;;;;;;5071848;28;20033;-71
2024/02/24 04:54:47;;;;;;;1.25;0.73;;;7.30;89.20;;;;;;5055762;28;20482;-71
2024/02/24 04:57:14;;;;;;;0.60;0.43;;;7.30;89.70;;;;;;5089370;28;20055;-71
2024/02/24 04:59:40;;;;;;;;;;;7.20;89.20;;;;;;5073928;28;20043;-71
2024/02/24 05:02:06;;;;;;;1.02;0.50;;;7.10;87.80;;;;;;5072107;28;19916;-71
2024/02/24 05:04:32;;;;;;;0.50;0.22;;;7.10;88.30;;;;;;5072233;28;20490;-72
2024/02/24 05:06:58;;;;;;;0.38;0.20;;;7.00;87.00;;;;;;5089353;28;20047;-70
2024/02/24 05:09:24;;;;;;;;;;;6.90;87.70;;;;;;5073989;28;20532;-71
2024/02/24 05:11:50;;;;;;;0.35;0.35;;;6.90;87.70;;;;;;5071367;28;20027;-71
2024/02/24 05:14:37;;;;;;;0.28;0.28;;;6.80;87.50;;;;;;5073359;28;20036;-71
2024/02/24 05:17:07;;;;;;;0.43;0.38;;;6.80;87.80;;;;;;5072237;28;20041;-71
2024/02/24 05:19:33;;;;;;;0.10;0.10;;;6.70;87.70;;;;;;5071976;28;20059;-71
2024/02/24 05:21:59;;;;;;;0.85;0.55;;;6.70;87.50;;;;;;5054639;28;20090;-71
2024/02/24 05:24:25;;;;;;;0.38;0.35;;;6.70;87.50;;;;;;5073048;28;20024;-71
2024/02/24 05:26:51;;;;;;;0.10;0.10;;;6.70;88.30;;;;;;5073297;28;20047;-72
2024/02/24 05:29:17;;;;;;;0.32;0.32;;;6.70;88.00;;;;;;5072909;28;20028;-71
2024/02/24 05:31:43;;;;;;;0.10;0.10;;;6.60;87.90;;;;;;5071235;28;20040;-72
2024/02/24 05:34:09;;;;;;;0.65;0.32;;;6.60;88.00;;;;;;5073025;28;20033;-71
2024/02/24 05:36:36;;;;;;;0.10;0.10;;;6.60;89.00;;;;;;5087725;28;20032;-72
2024/02/24 05:39:04;;;;;;;;;;;6.60;87.70;;;;;;5073495;28;20074;-72
2024/02/24 05:41:30;;;;;;;0.43;0.43;;;6.50;87.50;;;;;;5072330;28;19916;-71
2024/02/24 05:43:56;;;;;;;;;;;6.50;87.80;;;;;;5073454;28;20029;-72
2024/02/24 05:46:22;;;;;;;1.27;0.43;;;6.50;87.80;;;;;;5071670;28;20437;-71
2024/02/24 05:48:48;;;;;;;0.22;0.17;;;6.50;87.10;;;;;;5072543;28;20033;-70
2024/02/24 05:51:16;;;;;;;0.55;0.38;;;6.50;86.90;;;;;;5070909;28;20397;-71
2024/02/24 05:53:42;;;;;;;0.35;0.35;;;6.50;87.30;;;;;;5071216;28;20043;-71
2024/02/24 05:56:08;;;;;;;;;;;6.50;86.20;;;;;;5073509;28;20389;-72
2024/02/24 05:58:35;;;;;;;0.43;0.20;;;6.50;85.90;;;;;;5072356;28;19923;-71
2024/02/24 06:01:04;;;;;;;4.10;0.70;;;6.40;86.00;;;;;;5053887;28;20120;-72
2024/02/24 06:03:30;;;;;;;0.63;0.40;;;6.50;86.40;;;;;;5072483;28;20060;-72
2024/02/24 06:05:57;;;;;;;0.40;0.40;;;6.50;86.20;;;;;;5072894;28;20051;-71
2024/02/24 06:08:22;;;;;;;1.77;1.67;;;6.50;85.90;;;;;;5071199;28;20052;-72
2024/02/24 06:10:48;;;;;;;0.32;0.22;;;6.50;85.20;;;;;;5053925;28;20044;-71
2024/02/24 06:13:14;;;;;;;0.32;0.28;;;6.60;84.80;;;;;;5072484;28;20113;-70
2024/02/24 06:15:41;;;;;;;0.73;0.40;;;6.50;85.60;;;;;;5070921;28;20047;-72
2024/02/24 06:18:07;;;;;;;0.32;0.25;;;6.60;84.10;;;;;;5072409;28;20049;-72
2024/02/24 06:20:33;;;;;;;0.10;0.10;;;6.60;84.00;;;;;;5087281;28;20029;-71
2024/02/24 06:22:59;;;;;;;0.40;0.40;;;6.60;84.30;;;;;;5070918;28;20048;-71
2024/02/24 06:25:25;;;;;;;0.57;0.22;;;6.60;83.50;;;;;;5070808;28;20592;-71
2024/02/24 06:27:51;;;;;;;0.68;0.60;;;6.60;83.40;;;;;;5072390;28;20402;-72
2024/02/24 06:30:17;;;;;;;1.13;0.38;;;6.60;83.30;;;;;;5071301;28;20029;-72
2024/02/24 06:32:43;;;;;;;1.65;0.75;;;6.70;83.40;;;;;;5072015;28;20397;-71
2024/02/24 06:35:09;;;;;;;0.10;0.10;;;6.80;82.50;;;;;;5070585;28;20074;-71
2024/02/24 06:37:35;;;;;;;0.10;0.10;;;6.80;81.90;;;;;;5070590;28;20044;-71
2024/02/24 06:40:02;;;;;;;0.15;0.10;;;6.90;81.70;;;;;;5071941;28;20035;-71
2024/02/24 06:42:28;;;;;;;0.20;0.20;;;7.00;82.70;;;;;;5071517;28;20055;-71
2024/02/24 06:44:54;;;;;;;3.55;0.47;;;7.10;80.90;;;;;;5071434;28;20497;-70
2024/02/24 06:47:20;;;;;;;0.40;0.40;;;7.20;80.30;;;;;;5087146;28;20059;-70
2024/02/24 06:49:46;;;;;;;1.00;0.30;;;7.30;80.10;;;;;;5070545;28;20028;-71
2024/02/24 06:52:12;;;;;;;0.20;0.20;;;7.40;79.80;;;;;;5069860;28;20052;-71
2024/02/24 06:54:57;;;;;;;0.63;0.38;;;7.50;79.60;;;;;;5070199;28;20387;-71
2024/02/24 06:57:23;;;;;;;0.28;0.28;;;7.60;79.30;;;;;;5086968;28;20143;-70
2024/02/24 06:59:49;;;;;;;0.20;0.10;;;7.60;78.80;;;;;;5070355;28;20024;-70
2024/02/24 07:02:15;;;;;;;0.10;0.10;;;7.70;78.60;;;;;;5086606;28;20102;-70
2024/02/24 07:04:42;;;;;;;0.20;0.20;;;7.70;78.50;;;;;;5070241;28;20072;-71
2024/02/24 07:07:09;;;;;;;0.75;0.57;;;7.80;78.60;;;;;;5071614;28;20047;-71
2024/02/24 07:09:35;;;;;;;;;;;8.00;78.50;;;;;;5087242;28;20074;-71
2024/02/24 07:12:01;;;;;;;0.40;0.40;;;8.00;77.70;;;;;;5071061;28;20369;-71
2024/02/24 07:14:27;;;;;;;0.93;0.20;;;8.20;77.10;;;;;;5071641;28;20028;-71
2024/02/24 07:16:53;;;;;;;0.82;0.82;;;8.20;76.40;;;;;;5071278;28;20509;-71
2024/02/24 07:19:19;;;;;;;0.88;0.32;;;8.30;77.10;;;;;;5070081;28;20070;-72
2024/02/24 07:21:45;;;;;;;0.32;0.30;;;8.40;76.40;;;;;;5069315;28;20074;-71
2024/02/24 07:24:11;;;;;;;1.70;0.75;;;8.50;76.30;;;;;;5071176;28;20025;-72
2024/02/24 07:26:56;;;;;;;1.98;1.80;;;8.70;76.40;;;;;;5071279;28;20131;-70
2024/02/24 07:29:22;;;;;;;0.65;0.65;;;8.80;76.10;;;;;;5070792;28;20105;-70
2024/02/24 07:31:48;;;;;;;1.98;1.30;;;9.00;75.50;;;;;;5070656;28;20041;-71
2024/02/24 07:34:15;;;;;;;0.77;0.77;;;9.10;74.80;;;;;;5069616;28;20052;-72
2024/02/24 07:36:40;;;;;;;;;;;9.20;74.40;;;;;;5070738;28;20044;-72
2024/02/24 07:39:06;;;;;;;0.45;0.35;;;9.40;74.10;;;;;;5070937;28;20471;-71
2024/02/24 07:41:32;;;;;;;4.40;1.48;;;9.50;73.30;;;;;;5069117;28;20051;-72
2024/02/24 07:43:58;;;;;;;0.25;0.25;;;9.60;73.30;;;;;;5086553;28;20036;-70
2024/02/24 07:46:31;;;;;;;0.73;0.52;;;9.70;73.10;;;;;;5076476;28;20038;-71
2024/02/24 07:49:00;;;;;;;0.88;0.55;;;9.80;72.10;;;;;;5081595;28;20048;-71
2024/02/24 07:51:28;;;;;;;0.50;0.32;;;10.00;72.80;;;;;;5089470;28;20047;-70
2024/02/24 07:53:56;;;;;;;2.03;1.30;;;10.10;72.10;;;;;;5089641;28;20089;-72
2024/02/24 07:56:23;;;;;;;0.35;0.30;;;10.20;70.60;;;;;;5106537;28;20054;-70
2024/02/24 07:58:50;;;;;;;0.43;0.40;;;10.30;69.60;;;;;;5090701;28;20040;-71
2024/02/24 08:01:17;;;;;;;0.98;0.30;;;10.40;68.30;;;;;;5093649;28;20520;-71
2024/02/24 08:03:44;;;;;;;0.52;0.28;;;10.50;67.80;;;;;;5093439;28;20056;-72
2024/02/24 08:06:10;;;;;;;1.15;1.05;;;10.70;68.60;;;;;;5074538;28;20547;-72
2024/02/24 08:08:37;;;;;;;;;;;10.80;68.10;;;;;;5057264;28;20150;-71
2024/02/24 08:11:04;;;;;;;5.32;1.67;;;10.90;67.80;;;;;;5078755;28;19946;-72
2024/02/24 08:13:32;;;;;;;1.05;0.28;;;10.90;67.40;;;;;;5076818;28;20070;-71
2024/02/24 08:16:20;;;;;;;1.00;0.52;;;10.90;65.80;;;;;;5076305;28;20039;-72
2024/02/24 08:18:47;;;;;;;0.10;0.10;;;11.00;65.60;;;;;;5093600;28;20090;-71
2024/02/24 08:21:13;;;;;;;0.10;0.10;;;11.10;65.20;;;;;;5093154;28;20044;-72
2024/02/24 08:23:39;;;;;;;0.20;0.20;;;11.20;64.80;;;;;;5093694;28;20055;-71
2024/02/24 08:26:05;;;;;;;0.40;0.40;;;11.20;63.40;;;;;;5094685;28;20032;-72
2024/02/24 08:28:31;;;;;;;0.20;0.10;;;11.20;63.90;;;;;;5094207;28;20067;-72
2024/02/24 08:31:00;;;;;;;0.45;0.15;;;11.40;62.80;;;;;;5077973;28;20086;-70
2024/02/24 08:33:26;;;;;;;0.88;0.77;;;11.60;62.00;;;;;;5072778;28;20436;-71
2024/02/24 08:35:53;;;;;;;;;;;11.80;61.70;;;;;;5073294;28;20539;-71
2024/02/24 08:38:19;;;;;;;1.55;0.38;;;12.10;60.40;;;;;;5093717;28;19942;-70
2024/02/24 08:40:45;;;;;;;;;;;12.40;60.50;;;;;;5091650;28;20068;-71
2024/02/24 08:43:11;;;;;;;1.35;0.40;;;12.90;59.70;;;;;;5072794;28;19924;-71
2024/02/24 08:45:38;;;;;;;0.10;0.10;;;13.30;57.00;;;;;;5093817;28;20105;-72
2024/02/24 08:48:04;;;;;;;;;;;13.70;56.10;;;;;;5088330;28;20037;-72
2024/02/24 08:50:30;;;;;;;2.28;0.28;;;13.80;55.60;;;;;;5073396;28;19920;-71
2024/02/24 08:52:56;;;;;;;0.43;0.43;;;13.80;55.00;;;;;;5073685;28;20110;-72
2024/02/24 08:55:22;;;;;;;1.30;1.10;;;14.00;55.50;;;;;;5073723;28;20037;-71
2024/02/24 08:57:48;;;;;;;0.10;0.10;;;14.30;53.70;;;;;;5073463;28;20051;-71
2024/02/24 09:00:15;;;;;;;0.25;0.20;;;14.20;54.40;;;;;;5073630;28;20044;-70
2024/02/24 09:02:40;;;;;;;0.52;0.30;;;14.30;52.40;;;;;;5092375;28;20527;-71
2024/02/24 09:05:07;;;;;;;0.15;0.15;;;14.70;51.20;;;;;;5092498;28;20535;-70
2024/02/24 09:07:33;;;;;;;;;;;14.90;50.20;;;;;;5093093;28;20072;-71
2024/02/24 09:09:59;;;;;;;0.10;0.10;;;15.00;50.40;;;;;;5091626;28;19916;-71
2024/02/24 09:12:25;;;;;;;2.30;0.63;;;14.90;49.10;;;;;;5091024;28;20044;-70
2024/02/24 09:14:51;;;;;;;0.25;0.20;;;15.00;50.00;;;;;;5092630;28;20042;-71
2024/02/24 09:17:17;;;;;;;0.20;0.20;;;15.50;50.80;;;;;;5091498;28;20036;-70
2024/02/24 09:19:43;;;;;;;0.30;0.30;;;16.20;47.10;;;;;;5072099;28;20073;-72
2024/02/24 09:22:11;;;;;;;0.10;0.10;;;16.80;46.90;;;;;;5054645;28;20047;-71
2024/02/24 09:24:38;;;;;;;0.28;0.10;;;17.10;45.10;;;;;;5073019;28;20062;-71
2024/02/24 09:27:04;;;;;;;0.10;0.10;;;17.50;46.80;;;;;;5056082;28;20123;-72
2024/02/24 09:29:31;;;;;;;0.20;0.10;;;17.70;43.40;;;;;;5093234;28;20124;-71
2024/02/24 09:31:57;;;;;;;0.60;0.20;;;17.90;42.80;;;;;;5092824;28;20098;-72
2024/02/24 09:34:22;;;;;;;0.75;0.75;;;18.30;41.60;;;;;;5091394;28;20544;-71
2024/02/24 09:36:48;;;;;;;0.20;0.20;;;18.70;42.10;;;;;;5080142;28;20036;-72
2024/02/24 09:39:14;;;;;;;0.10;0.10;;;18.80;39.90;;;;;;5084993;28;20028;-70
2024/02/24 09:41:40;;;;;;;0.55;0.47;;;18.80;39.70;;;;;;5092717;28;20119;-72
2024/02/24 09:44:07;;;;;;;0.65;0.20;;;18.50;40.60;;;;;;5074092;28;20040;-71
2024/02/24 09:46:51;;;;;;;;;;;18.40;39.40;;;;;;5083901;28;20548;-71
2024/02/24 09:49:18;;;;;;;0.10;0.10;;;18.20;38.60;;;;;;5091587;28;19954;-72
2024/02/24 09:51:46;;;;;;;0.10;0.10;;;18.10;37.70;;;;;;5091004;28;20040;-71
2024/02/24 09:54:12;;;;;;;1.15;0.40;;;18.20;37.70;;;;;;5073297;28;20031;-71
2024/02/24 09:56:40;;;;;;;3.67;0.85;;;18.10;37.80;;;;;;5072647;28;20043;-72
2024/02/24 09:59:07;;;;;;;1.33;0.35;;;18.30;38.60;;;;;;5071297;28;20124;-72
2024/02/24 10:01:36;;;;;;;0.75;0.75;;;18.70;38.00;;;;;;5070730;28;20116;-71
2024/02/24 10:04:03;;;;;;;0.10;0.10;;;19.00;35.20;;;;;;5057500;28;20052;-71
2024/02/24 10:06:33;;;;;;;0.10;0.10;;;18.70;37.20;;;;;;5074562;28;20024;-72
2024/02/24 10:08:59;;;;;;;3.47;0.50;;;18.40;37.50;;;;;;5084968;28;20123;-72
2024/02/24 10:11:25;;;;;;;0.40;0.40;;;18.40;37.50;;;;;;5070385;28;20033;-71
2024/02/24 10:13:53;;;;;;;0.32;0.10;;;18.50;37.80;;;;;;5071137;28;20062;-71
2024/02/24 10:16:24;;;;;;;1.30;0.40;;;18.40;37.10;;;;;;5072129;28;20032;-71
2024/02/24 10:18:50;;;;;;;0.30;0.13;;;18.30;38.50;;;;;;5071122;28;20040;-71
2024/02/24 10:21:16;;;;;;;0.32;0.32;;;18.20;37.80;;;;;;5071602;28;20493;-71
2024/02/24 10:23:42;;;;;;;0.03;0.03;;;18.10;37.80;;;;;;5054188;28;20041;-72
2024/02/24 10:26:08;;;;;;;0.65;0.13;;;17.80;37.20;;;;;;5070680;28;20551;-70
2024/02/24 10:28:35;;;;;;;0.35;0.32;;;17.70;38.20;;;;;;5070670;28;20124;-71
2024/02/24 10:31:01;;;;;;;0.45;0.45;;;17.60;38.10;;;;;;5071374;28;20068;-71
2024/02/24 10:33:30;;;;;;;0.85;0.68;;;17.70;38.90;;;;;;5070689;28;20064;-70
2024/02/24 10:35:57;;;;;;;0.60;0.47;;;18.30;37.50;;;;;;5090701;28;20511;-72
2024/02/24 10:38:25;;;;;;;1.70;0.75;;;18.60;37.10;;;;;;5090849;28;20464;-71
2024/02/24 10:40:53;;;;;;;0.15;0.15;;;18.50;35.90;;;;;;5091415;28;20036;-71
2024/02/24 10:43:21;;;;;;;0.20;0.20;;;18.40;35.90;;;;;;5091766;28;20048;-71
2024/02/24 10:45:47;;;;;;;0.28;0.25;;;18.30;35.30;;;;;;5090673;28;20440;-72
2024/02/24 10:48:13;;;;;;;2.17;0.40;;;18.30;35.40;;;;;;5092061;28;20152;-71
2024/02/24 10:50:39;;;;;;;0.70;0.55;;;18.50;34.60;;;;;;5090170;28;20405;-70
2024/02/24 10:53:06;;;;;;;;;;;18.60;35.30;;;;;;5091144;28;20515;-70
2024/02/24 10:55:36;;;;;;;0.80;0.50;;;18.60;34.50;;;;;;5090463;28;19919;-72
2024/02/24 10:58:02;;;;;;;1.17;0.65;;;18.40;34.00;;;;;;5090714;28;20036;-71
2024/02/24 11:00:31;;;;;;;1.85;0.75;;;18.40;35.50;;;;;;5089708;28;20047;-71
2024/02/24 11:02:59;;;;;;;0.10;0.10;;;18.50;37.50;;;;;;5089918;28;20090;-72
2024/02/24 11:05:27;;;;;;;0.28;0.15;;;18.50;35.80;;;;;;5070055;28;20116;-71
2024/02/24 11:07:53;;;;;;;0.65;0.40;;;18.30;35.10;;;;;;5071433;28;20035;-72
2024/02/24 11:10:19;;;;;;;;;;;18.10;35.10;;;;;;5070138;28;20047;-72
2024/02/24 11:12:50;;;;;;;0.22;0.22;;;18.20;34.30;;;;;;5087102;28;19916;-71
2024/02/24 11:15:34;;;;;;;0.10;0.10;;;18.50;35.40;;;;;;5071073;28;20115;-70
2024/02/24 11:18:00;;;;;;;0.22;0.10;;;18.80;34.90;;;;;;5086084;28;20241;-72
2024/02/24 11:20:39;;;;;;;0.00;0.00;;;18.90;34.10;;;;;;5089897;28;20486;-72
2024/02/24 11:23:25;;;;;;;0.30;0.30;;;18.80;33.50;;;;;;5091562;28;20043;-72
2024/02/24 11:26:22;;;;;;;0.10;0.10;;;19.20;33.80;;;;;;5073388;28;20489;-71
2024/02/24 11:29:02;;;;;;;0.43;0.10;;;19.60;30.60;;;;;;5091319;28;20536;-72
2024/02/24 11:31:32;;;;;;;0.22;0.22;;;19.70;31.10;;;;;;5089593;28;20056;-72
2024/02/24 11:34:02;;;;;;;1.50;0.60;;;19.80;32.70;;;;;;5071627;28;20107;-72
2024/02/24 11:36:31;;;;;;;0.88;0.75;;;19.90;31.40;;;;;;5091507;28;20119;-71
2024/02/24 11:38:58;;;;;;;1.27;0.52;;;19.80;32.50;;;;;;5089861;28;20051;-73
2024/02/24 11:44:12;;;;;;;1.00;0.68;;;19.60;31.50;;;;;;5069842;28;20073;-71
2024/02/24 11:46:39;;;;;;;0.45;0.30;;;19.80;30.30;;;;;;5052882;28;20028;-73
2024/02/24 11:49:05;;;;;;;0.20;0.20;;;19.80;31.30;;;;;;5074351;28;20050;-71
2024/02/24 11:51:31;;;;;;;0.65;0.65;;;19.70;32.20;;;;;;5088993;28;20041;-73
2024/02/24 11:53:58;;;;;;;;;;;19.40;31.50;;;;;;5078968;28;20074;-71
2024/02/24 11:56:25;;;;;;;0.65;0.50;;;19.20;30.90;;;;;;5069242;28;19924;-73
2024/02/24 11:58:54;;;;;;;0.25;0.25;;;19.00;31.90;;;;;;5070791;28;20072;-72
2024/02/24 12:01:20;;;;;;;0.98;0.50;;;18.90;32.10;;;;;;5068709;28;20090;-72
2024/02/24 12:04:05;;;;;;;0.20;0.20;;;18.90;32.90;;;;;;5070246;28;20098;-71
2024/02/24 12:06:32;;;;;;;2.78;1.45;;;18.70;32.50;;;;;;5072712;28;20062;-71
2024/02/24 12:09:00;;;;;;;6.68;4.60;;;18.60;33.80;;;;;;5075862;28;20058;-72
2024/02/24 12:11:27;;;;;;;6.43;3.83;;;18.50;32.90;;;;;;5070130;28;20036;-70
2024/02/24 12:13:53;;;;;;;2.15;1.38;;;18.40;31.90;;;;;;5069090;28;20077;-70
2024/02/24 12:16:19;;;;;;;4.70;1.98;;;18.10;34.20;;;;;;5070562;28;20036;-72
2024/02/24 12:18:46;;;;;;;1.27;0.73;;;18.10;32.80;;;;;;5086893;28;20032;-73
2024/02/24 12:21:13;;;;;;;3.35;2.22;;;18.10;32.00;;;;;;5074266;28;20109;-71
2024/02/24 12:23:43;;;;;;;2.63;1.65;;;18.30;32.90;;;;;;5090954;28;20504;-72
2024/02/24 12:26:28;;;;;;;1.45;1.15;;;18.30;32.50;;;;;;5069410;28;20040;-71
2024/02/24 12:28:54;;;;;;;0.88;0.50;;;18.40;32.40;;;;;;5088243;28;20115;-73
2024/02/24 12:31:21;;;;;;;0.43;0.20;;;18.60;32.00;;;;;;5088732;28;20385;-70
2024/02/24 12:33:48;;;;;;;1.35;0.70;;;18.40;31.30;;;;;;5089958;28;20039;-72
2024/02/24 12:36:15;;;;;;;0.20;0.10;;;18.40;32.10;;;;;;5090443;28;20035;-72
2024/02/24 12:38:42;;;;;;;1.75;0.30;;;18.40;31.80;;;;;;5072584;28;20135;-71
2024/02/24 12:41:32;;;;;;;1.00;0.60;;;18.80;32.90;;;;;;5088534;28;20039;-71
2024/02/24 12:43:58;;;;;;;0.43;0.20;;;19.10;31.00;;;;;;5085684;28;20052;-73
2024/02/24 12:46:24;;;;;;;0.43;0.28;;;19.10;30.60;;;;;;5071791;28;20037;-73
2024/02/24 12:48:50;;;;;;;0.10;0.10;;;19.10;31.60;;;;;;5055675;28;20036;-72
2024/02/24 12:51:17;;;;;;;0.47;0.47;;;18.90;31.80;;;;;;5055506;28;20028;-73
2024/02/24 12:53:43;;;;;;;0.57;0.50;;;19.10;30.90;;;;;;5073813;28;20101;-74
2024/02/24 12:56:09;;;;;;;0.10;0.10;;;19.20;30.60;;;;;;5072424;28;20028;-71
2024/02/24 12:58:38;;;;;;;0.22;0.20;;;19.60;30.20;;;;;;5074017;28;20397;-71
2024/02/24 13:01:06;;;;;;;0.10;0.10;;;20.30;29.90;;;;;;5073246;28;20417;-70